Time;durP1;ratioP1;P1;durP2;ratioP2;P2;SDS_P1;SDS_P2;PMS_P1;PMS_P2;Temp;Humidity;BMP_temperature;BMP_pressure;BME280_temperature;BME280_humidity;BME280_pressure;Samples;Min_cycle;Max_cycle;Signal;HPM_P1;HPM_P2
2023/10/30 00:01:15;;;;;;;14.85;6.25;;;;;;;13.08;59.38;95669.53;5069431;28;20510;-75
2023/10/30 00:03:40;;;;;;;23.20;7.00;;;;;;;12.53;59.33;95573.00;5072352;28;20138;-75
2023/10/30 00:06:06;;;;;;;19.52;6.65;;;;;;;12.89;58.95;95634.00;5092558;28;20502;-75
2023/10/30 00:08:32;;;;;;;19.75;7.22;;;;;;;13.08;59.64;95675.66;5074687;28;20390;-75
2023/10/30 00:10:57;;;;;;;20.02;6.47;;;;;;;12.93;59.94;95667.75;5092777;28;20518;-75
2023/10/30 00:13:23;;;;;;;21.20;6.63;;;;;;;12.80;60.01;95639.09;5092697;28;20035;-75
2023/10/30 00:15:48;;;;;;;18.92;7.72;;;;;;;12.84;59.97;95645.44;5057869;28;20097;-75
2023/10/30 00:18:14;;;;;;;14.95;6.22;;;;;;;13.01;59.79;95664.50;5074528;28;20042;-75
2023/10/30 00:20:39;;;;;;;18.83;7.32;;;;;;;12.97;59.81;95652.81;5074728;28;20032;-75
2023/10/30 00:23:05;;;;;;;15.98;7.20;;;;;;;12.98;59.90;95650.94;5092472;28;20039;-75
2023/10/30 00:25:30;;;;;;;23.63;7.60;;;;;;;13.04;59.82;95656.00;5092670;28;20418;-75
2023/10/30 00:27:59;;;;;;;21.45;7.13;;;;;;;13.05;59.95;95664.75;5073996;28;20127;-75
2023/10/30 00:30:26;;;;;;;17.30;6.85;;;;;;;12.83;59.43;95614.56;5074053;28;20032;-75
2023/10/30 00:32:51;;;;;;;22.38;7.68;;;;;;;13.10;59.46;95667.38;5081029;28;20427;-75
2023/10/30 00:35:17;;;;;;;20.48;6.85;;;;;;;13.01;59.82;95645.09;5073858;28;20059;-75
2023/10/30 00:37:43;;;;;;;17.05;7.53;;;;;;;12.75;59.58;95604.50;5073800;28;20028;-75
2023/10/30 00:40:10;;;;;;;20.45;7.03;;;;;;;13.18;59.36;95682.00;5073904;28;20032;-75
2023/10/30 00:42:35;;;;;;;17.95;7.63;;;;;;;13.14;60.03;95671.09;5074077;28;20040;-75
2023/10/30 00:45:04;;;;;;;22.15;6.60;;;;;;;13.19;59.47;95672.97;5073626;28;20028;-75
2023/10/30 00:47:29;;;;;;;16.50;6.63;;;;;;;13.12;59.69;95665.25;5071339;28;20575;-75
2023/10/30 00:49:55;;;;;;;16.58;6.47;;;;;;;13.00;59.72;95654.13;5073703;28;20060;-75
2023/10/30 00:52:20;;;;;;;23.40;7.43;;;;;;;12.57;60.00;95621.94;5091466;28;20359;-75
2023/10/30 00:54:45;;;;;;;20.92;7.20;;;;;;;12.82;60.39;95649.44;5093496;28;20490;-74
2023/10/30 00:57:11;;;;;;;22.27;8.55;;;;;;;12.87;59.94;95652.09;5075815;28;20150;-73
2023/10/30 00:59:37;;;;;;;23.73;6.65;;;;;;;12.96;59.94;95666.41;5075758;28;20032;-73
2023/10/30 01:02:02;;;;;;;24.92;8.02;;;;;;;12.65;60.22;95629.34;5090763;28;20059;-74
2023/10/30 01:04:28;;;;;;;19.60;7.32;;;;;;;12.88;60.41;95667.81;5075649;28;20123;-74
2023/10/30 01:06:54;;;;;;;19.60;6.93;;;;;;;12.81;60.67;95653.22;5072022;28;20086;-74
2023/10/30 01:09:19;;;;;;;20.35;6.78;;;;;;;12.85;60.81;95673.66;5072353;28;20461;-74
2023/10/30 01:11:45;;;;;;;19.30;6.65;;;;;;;12.57;60.64;95645.09;5074767;28;20123;-73
2023/10/30 01:14:10;;;;;;;16.25;6.72;;;;;;;12.40;60.86;95615.38;5092383;28;20447;-73
2023/10/30 01:16:36;;;;;;;17.58;6.80;;;;;;;12.65;61.43;95663.13;5094445;28;20039;-73
2023/10/30 01:19:01;;;;;;;21.65;7.50;;;;;;;12.42;61.28;95614.03;5075300;28;20074;-73
2023/10/30 01:21:27;;;;;;;16.67;6.63;;;;;;;12.58;61.23;95660.78;5075551;28;20024;-74
2023/10/30 01:23:52;;;;;;;19.02;6.43;;;;;;;12.46;61.78;95664.81;5092669;28;20040;-73
2023/10/30 01:26:18;;;;;;;23.65;7.20;;;;;;;12.44;61.88;95662.41;5094347;28;20537;-74
2023/10/30 01:28:43;;;;;;;19.52;6.95;;;;;;;12.30;61.60;95630.31;5075514;28;20042;-74
2023/10/30 01:31:09;;;;;;;18.70;7.70;;;;;;;12.37;61.62;95628.13;5075898;28;20031;-74
2023/10/30 01:33:34;;;;;;;15.50;6.25;;;;;;;12.33;61.48;95626.31;5094064;28;20054;-74
2023/10/30 01:36:00;;;;;;;21.15;6.32;;;;;;;12.41;61.64;95649.69;5075247;28;20039;-74
2023/10/30 01:38:25;;;;;;;17.52;6.97;;;;;;;12.42;61.79;95653.13;5093922;28;20374;-74
2023/10/30 01:40:51;;;;;;;15.20;7.25;;;;;;;12.33;61.85;95658.22;5093034;28;20066;-73
2023/10/30 01:43:30;;;;;;;15.98;6.90;;;;;;;12.24;62.17;95639.38;5074819;28;20043;-73
2023/10/30 01:45:56;;;;;;;15.20;6.05;;;;;;;12.16;62.40;95641.81;5090869;28;20024;-77
2023/10/30 01:48:22;;;;;;;19.25;6.38;;;;;;;12.20;62.07;95662.28;5108325;28;20035;-77
2023/10/30 01:50:49;;;;;;;19.45;5.65;;;;;;;12.13;62.11;95656.41;5091154;28;20039;-77
2023/10/30 01:53:20;;;;;;;14.65;6.00;;;;;;;12.07;61.91;95644.22;5079993;28;20048;-77
2023/10/30 01:55:46;;;;;;;13.15;6.05;;;;;;;12.02;62.64;95636.28;5071170;28;20036;-76
2023/10/30 01:58:11;;;;;;;15.20;5.78;;;;;;;12.09;62.40;95642.09;5087262;28;20028;-77
2023/10/30 02:00:38;;;;;;;24.77;5.93;;;;;;;12.11;61.90;95650.59;5102388;28;20020;-77
2023/10/30 02:03:04;;;;;;;16.05;5.35;;;;;;;11.85;62.19;95623.28;5108502;28;20024;-76
2023/10/30 02:05:29;;;;;;;19.05;5.53;;;;;;;12.03;62.47;95653.03;5091081;28;20076;-73
2023/10/30 02:07:55;;;;;;;15.25;6.65;;;;;;;12.11;62.62;95661.22;5072197;28;20023;-73
2023/10/30 02:10:21;;;;;;;17.48;6.75;;;;;;;11.77;62.38;95599.94;5068884;28;20024;-73
2023/10/30 02:12:50;;;;;;;16.15;6.82;;;;;;;11.32;62.54;95537.06;5090349;28;20028;-73
2023/10/30 02:15:16;;;;;;;14.98;6.60;;;;;;;11.99;62.52;95644.78;5072300;28;20031;-73
2023/10/30 02:17:42;;;;;;;16.98;6.13;;;;;;;11.87;62.81;95625.69;5071630;28;20047;-73
2023/10/30 02:20:08;;;;;;;14.90;6.18;;;;;;;11.89;62.76;95626.22;5071986;28;20016;-73
2023/10/30 02:22:33;;;;;;;15.65;6.45;;;;;;;12.07;62.66;95665.47;5071860;28;20076;-73
2023/10/30 02:24:59;;;;;;;16.60;5.40;;;;;;;11.99;62.45;95642.91;5071770;28;20028;-73
2023/10/30 02:27:24;;;;;;;15.85;6.63;;;;;;;11.96;62.52;95638.16;5090219;28;20470;-73
2023/10/30 02:29:50;;;;;;;14.30;6.40;;;;;;;12.10;62.08;95632.25;5072007;28;20142;-73
2023/10/30 02:32:16;;;;;;;16.08;5.70;;;;;;;12.33;61.90;95682.16;5072013;28;20104;-73
2023/10/30 02:34:41;;;;;;;18.02;5.45;;;;;;;12.11;61.75;95655.91;5090343;28;20080;-73
2023/10/30 02:37:07;;;;;;;15.88;5.85;;;;;;;12.27;62.45;95678.72;5072171;28;20476;-73
2023/10/30 02:39:33;;;;;;;19.38;6.22;;;;;;;12.19;62.16;95659.88;5090427;28;20062;-73
2023/10/30 02:42:01;;;;;;;20.45;5.93;;;;;;;12.06;62.15;95637.31;5090246;28;20144;-73
2023/10/30 02:44:28;;;;;;;18.30;6.05;;;;;;;12.20;62.03;95664.13;5071720;28;20114;-73
2023/10/30 02:46:54;;;;;;;16.13;5.55;;;;;;;12.27;62.18;95668.09;5068377;28;20075;-73
2023/10/30 02:49:19;;;;;;;13.93;6.03;;;;;;;11.89;62.44;95608.41;5068526;28;20478;-73
2023/10/30 02:51:45;;;;;;;15.07;5.47;;;;;;;11.57;62.47;95581.38;5071629;28;20035;-73
2023/10/30 02:54:10;;;;;;;16.80;5.90;;;;;;;11.90;62.48;95641.88;5090172;28;20055;-73
2023/10/30 02:56:36;;;;;;;17.83;5.63;;;;;;;12.05;62.72;95667.63;5072064;28;20036;-73
2023/10/30 02:59:01;;;;;;;18.42;5.63;;;;;;;11.76;63.08;95634.72;5071798;28;20066;-73
2023/10/30 03:01:26;;;;;;;16.23;5.07;;;;;;;12.01;62.79;95668.44;5071881;28;20089;-73
2023/10/30 03:03:52;;;;;;;15.10;6.22;;;;;;;11.82;63.39;95661.06;5071595;28;20035;-73
2023/10/30 03:06:17;;;;;;;17.10;6.10;;;;;;;12.00;63.05;95678.28;5071526;28;20119;-73
2023/10/30 03:08:43;;;;;;;10.82;5.18;;;;;;;11.61;63.64;95636.31;5089526;28;20064;-73
2023/10/30 03:11:09;;;;;;;18.10;6.20;;;;;;;11.98;63.13;95675.06;5071374;28;20035;-73
2023/10/30 03:13:34;;;;;;;16.25;5.75;;;;;;;11.98;63.16;95680.38;5071800;28;20119;-72
2023/10/30 03:15:59;;;;;;;25.95;7.28;;;;;;;11.72;62.80;95647.75;5089938;28;20040;-73
2023/10/30 03:18:25;;;;;;;22.33;5.70;;;;;;;11.94;63.37;95680.16;5071541;28;20436;-73
2023/10/30 03:20:50;;;;;;;15.43;5.50;;;;;;;11.98;63.12;95683.03;5067943;28;20423;-73
2023/10/30 03:23:16;;;;;;;22.23;6.38;;;;;;;11.90;63.08;95688.94;5067697;28;20527;-74
2023/10/30 03:25:42;;;;;;;15.27;6.30;;;;;;;11.91;63.16;95678.03;5070946;28;20036;-74
2023/10/30 03:28:07;;;;;;;19.48;6.35;;;;;;;11.92;62.77;95684.13;5090082;28;20028;-73
2023/10/30 03:30:36;;;;;;;20.27;6.60;;;;;;;11.80;62.41;95692.41;5071020;28;20044;-73
2023/10/30 03:33:03;;;;;;;17.02;6.72;;;;;;;11.42;62.68;95677.00;5068018;28;20032;-73
2023/10/30 03:35:29;;;;;;;20.92;7.47;;;;;;;10.99;63.50;95665.00;5069444;28;20052;-74
2023/10/30 03:37:54;;;;;;;;;;;;;;;11.41;62.73;95686.81;5075215;28;20055;-73
2023/10/30 03:40:19;;;;;;;22.55;6.40;;;;;;;11.40;62.28;95681.78;5092143;28;20243;-73
2023/10/30 03:42:45;;;;;;;16.52;6.55;;;;;;;11.39;62.76;95686.28;5093013;28;20036;-73
2023/10/30 03:45:10;;;;;;;19.70;6.50;;;;;;;10.97;63.25;95640.63;5074689;28;20042;-73
2023/10/30 03:47:36;;;;;;;15.85;5.82;;;;;;;10.93;63.05;95618.31;5092740;28;20418;-74
2023/10/30 03:50:01;;;;;;;23.77;6.97;;;;;;;11.25;62.46;95665.84;5074655;28;20391;-73
2023/10/30 03:52:27;;;;;;;14.75;6.65;;;;;;;11.48;62.28;95697.97;5093381;28;20090;-73
2023/10/30 03:54:52;;;;;;;27.92;7.13;;;;;;;11.23;62.28;95661.59;5074216;28;20116;-73
2023/10/30 03:57:17;;;;;;;17.02;6.22;;;;;;;11.41;62.15;95678.84;5092873;28;20055;-74
2023/10/30 03:59:43;;;;;;;17.60;5.90;;;;;;;11.20;62.67;95659.47;5074614;28;20399;-73
2023/10/30 04:02:09;;;;;;;18.63;6.45;;;;;;;11.23;62.50;95645.66;5093147;28;20492;-73
2023/10/30 04:04:36;;;;;;;20.35;5.80;;;;;;;11.39;62.63;95672.22;5076456;28;20513;-73
2023/10/30 04:07:02;;;;;;;21.02;5.55;;;;;;;11.21;63.07;95684.16;5095555;28;20028;-73
2023/10/30 04:09:28;;;;;;;20.73;5.82;;;;;;;11.35;63.09;95689.75;5077525;28;20062;-73
2023/10/30 04:11:54;;;;;;;16.70;5.68;;;;;;;11.31;63.26;95678.03;5077080;28;20063;-75
2023/10/30 04:14:19;;;;;;;41.65;6.10;;;;;;;11.20;62.71;95659.47;5095536;28;20038;-74
2023/10/30 04:16:45;;;;;;;21.00;5.82;;;;;;;11.18;62.97;95653.63;5073659;28;20098;-73
2023/10/30 04:19:10;;;;;;;18.02;6.20;;;;;;;11.43;63.00;95695.31;5073231;28;20123;-73
2023/10/30 04:21:36;;;;;;;22.85;6.63;;;;;;;11.45;62.78;95687.06;5093568;28;20031;-73
2023/10/30 04:24:01;;;;;;;25.38;6.88;;;;;;;11.33;62.71;95673.28;5052359;28;20036;-77
2023/10/30 04:26:27;;;;;;;14.90;5.90;;;;;;;11.16;63.03;95658.41;5086669;28;20033;-76
2023/10/30 04:28:52;;;;;;;15.68;6.55;;;;;;;11.35;62.79;95684.44;5073827;28;20029;-77
2023/10/30 04:31:18;;;;;;;17.83;6.00;;;;;;;11.29;63.34;95677.53;5107303;28;20059;-77
2023/10/30 04:33:46;;;;;;;11.57;5.40;;;;;;;10.87;63.46;95620.16;5109810;28;20036;-77
2023/10/30 04:36:13;;;;;;;17.33;6.82;;;;;;;10.68;63.29;95596.00;5108884;28;20350;-76
2023/10/30 04:38:39;;;;;;;15.38;6.00;;;;;;;10.89;63.04;95628.66;5109622;28;20028;-78
2023/10/30 04:41:04;;;;;;;16.15;5.68;;;;;;;11.20;63.24;95683.38;5090319;28;20026;-77
2023/10/30 04:43:34;;;;;;;15.57;6.90;;;;;;;11.24;63.45;95683.63;5090428;28;20035;-77
2023/10/30 04:45:59;;;;;;;14.45;5.95;;;;;;;11.04;63.16;95665.03;5108169;28;20099;-77
2023/10/30 04:48:31;;;;;;;14.07;6.13;;;;;;;10.82;63.36;95636.88;5090478;28;20097;-77
2023/10/30 04:50:56;;;;;;;20.08;7.03;;;;;;;10.98;63.58;95668.75;5090619;28;20032;-77
2023/10/30 04:53:21;;;;;;;23.83;6.63;;;;;;;11.06;63.37;95674.31;5108453;28;20135;-77
2023/10/30 04:55:51;;;;;;;31.45;7.82;;;;;;;10.99;63.30;95665.81;5108970;28;20640;-77
2023/10/30 04:58:17;;;;;;;25.67;7.60;;;;;;;10.79;64.03;95671.09;5109060;28;20039;-76
2023/10/30 05:00:42;;;;;;;28.83;8.85;;;;;;;11.05;63.68;95703.78;5092610;28;20036;-77
2023/10/30 05:03:09;;;;;;;29.35;8.23;;;;;;;10.82;63.46;95654.66;5109656;28;20071;-77
2023/10/30 05:05:38;;;;;;;16.52;7.65;;;;;;;10.99;63.76;95696.84;5108299;28;20046;-77
2023/10/30 05:08:04;;;;;;;14.35;7.45;;;;;;;10.85;63.79;95662.06;5089929;28;20036;-77
2023/10/30 05:10:29;;;;;;;15.18;7.22;;;;;;;10.92;63.41;95677.75;5089632;28;20410;-77
2023/10/30 05:12:55;;;;;;;20.50;6.22;;;;;;;10.98;63.39;95703.25;5109112;28;20036;-77
2023/10/30 05:15:23;;;;;;;19.30;6.95;;;;;;;10.95;63.91;95699.25;5071819;28;20039;-75
2023/10/30 05:17:49;;;;;;;17.42;6.40;;;;;;;10.77;64.46;95697.09;5089900;28;20060;-75
2023/10/30 05:20:15;;;;;;;13.88;6.88;;;;;;;10.74;63.97;95689.66;5073073;28;20036;-75
2023/10/30 05:22:43;;;;;;;19.52;6.72;;;;;;;10.94;64.33;95729.50;5091033;28;20089;-75
2023/10/30 05:25:09;;;;;;;15.32;6.93;;;;;;;10.95;64.47;95717.84;5054206;28;20039;-74
2023/10/30 05:27:34;;;;;;;21.35;7.35;;;;;;;10.97;63.81;95709.63;5061686;28;20040;-75
2023/10/30 05:30:00;;;;;;;23.88;7.45;;;;;;;10.90;64.01;95709.06;5073048;28;20043;-75
2023/10/30 05:32:26;;;;;;;24.92;8.18;;;;;;;11.09;63.54;95723.44;5072826;28;20059;-75
2023/10/30 05:34:55;;;;;;;22.48;8.23;;;;;;;11.07;63.93;95726.34;5069967;28;20154;-73
2023/10/30 05:37:21;;;;;;;28.88;9.23;;;;;;;11.11;63.33;95730.06;5069534;28;20056;-73
2023/10/30 05:39:46;;;;;;;26.17;9.07;;;;;;;11.12;63.14;95726.38;5090724;28;20032;-73
2023/10/30 05:42:12;;;;;;;22.70;8.18;;;;;;;11.06;62.82;95727.41;5090636;28;20083;-73
2023/10/30 05:44:37;;;;;;;28.52;8.93;;;;;;;11.08;61.99;95716.53;5072234;28;20522;-73
2023/10/30 05:47:03;;;;;;;28.15;9.68;;;;;;;11.10;62.06;95731.13;5071748;28;20020;-73
2023/10/30 05:49:29;;;;;;;29.02;8.18;;;;;;;11.33;61.79;95748.44;5071942;28;20028;-73
2023/10/30 05:51:55;;;;;;;29.90;8.07;;;;;;;11.24;61.21;95726.09;5090357;28;20040;-73
2023/10/30 05:54:21;;;;;;;20.48;8.27;;;;;;;11.36;61.34;95739.94;5071963;28;20393;-73
2023/10/30 05:56:47;;;;;;;27.45;9.30;;;;;;;11.32;61.45;95761.97;5090108;28;20415;-73
2023/10/30 05:59:12;;;;;;;24.70;7.55;;;;;;;11.39;60.89;95754.53;5071682;28;20093;-73
2023/10/30 06:01:38;;;;;;;25.27;8.27;;;;;;;11.31;60.52;95744.44;5089998;28;20034;-75
2023/10/30 06:04:04;;;;;;;17.95;7.18;;;;;;;11.46;61.01;95750.56;5090096;28;20035;-74
2023/10/30 06:06:29;;;;;;;21.63;7.55;;;;;;;11.53;60.46;95760.91;5071695;28;20557;-72
2023/10/30 06:08:55;;;;;;;18.02;7.97;;;;;;;11.42;60.27;95741.53;5056174;28;20035;-73
2023/10/30 06:11:21;;;;;;;23.58;8.57;;;;;;;11.51;61.00;95763.06;5077181;28;20040;-73
2023/10/30 06:13:46;;;;;;;22.35;7.82;;;;;;;11.53;60.71;95752.94;5065406;28;20069;-73
2023/10/30 06:16:16;;;;;;;21.50;8.00;;;;;;;11.04;60.66;95675.66;5089860;28;20229;-73
2023/10/30 06:18:41;;;;;;;34.38;9.45;;;;;;;11.61;60.58;95749.75;5090455;28;20036;-73
2023/10/30 06:21:07;;;;;;;20.88;8.60;;;;;;;11.52;60.20;95744.19;5089489;28;20387;-73
2023/10/30 06:23:34;;;;;;;30.77;9.57;;;;;;;11.72;59.98;95763.84;5090405;28;20580;-75
2023/10/30 06:26:00;;;;;;;23.10;8.60;;;;;;;11.65;60.48;95750.03;5071946;28;20089;-75
2023/10/30 06:28:25;;;;;;;27.40;9.35;;;;;;;11.54;60.17;95736.75;5077184;28;20481;-74
2023/10/30 06:30:51;;;;;;;28.67;9.30;;;;;;;11.52;60.13;95720.28;5070126;28;20110;-74
2023/10/30 06:33:16;;;;;;;24.23;9.23;;;;;;;11.65;60.23;95726.94;5067129;28;20054;-74
2023/10/30 06:35:42;;;;;;;24.33;9.43;;;;;;;11.56;60.08;95715.25;5070120;28;20040;-74
2023/10/30 06:38:07;;;;;;;28.48;10.05;;;;;;;11.92;60.27;95754.03;5070133;28;20089;-75
2023/10/30 06:40:32;;;;;;;30.42;8.43;;;;;;;12.00;60.30;95755.34;5068610;28;20042;-73
2023/10/30 06:42:58;;;;;;;26.60;9.32;;;;;;;12.09;60.64;95774.22;5089340;28;20494;-73
2023/10/30 06:45:23;;;;;;;27.17;9.00;;;;;;;12.01;60.74;95734.88;5106410;28;20046;-76
2023/10/30 06:47:49;;;;;;;26.23;8.00;;;;;;;12.26;60.47;95775.53;5115243;28;20100;-75
2023/10/30 06:50:14;;;;;;;22.45;8.75;;;;;;;12.23;60.59;95754.00;5089617;28;20031;-76
2023/10/30 06:52:40;;;;;;;19.98;8.63;;;;;;;12.32;60.58;95771.00;5111303;28;20044;-76
2023/10/30 06:55:06;;;;;;;21.27;8.43;;;;;;;12.35;60.28;95755.31;5109116;28;20083;-76
2023/10/30 06:57:31;;;;;;;18.70;8.23;;;;;;;12.33;60.48;95738.81;5112290;28;20028;-76
2023/10/30 06:59:58;;;;;;;19.85;7.90;;;;;;;12.41;60.29;95739.31;5102274;28;20070;-76
2023/10/30 07:02:23;;;;;;;15.38;7.57;;;;;;;12.51;60.74;95763.25;5098026;28;20020;-76
2023/10/30 07:04:49;;;;;;;22.33;7.13;;;;;;;12.50;61.20;95740.38;5102725;28;20053;-75
2023/10/30 07:07:14;;;;;;;12.38;6.10;;;;;;;12.55;61.01;95732.34;5086917;28;20052;-76
2023/10/30 07:09:40;;;;;;;22.15;5.93;;;;;;;12.53;61.27;95714.00;5089332;28;20103;-76
2023/10/30 07:12:05;;;;;;;18.55;6.82;;;;;;;12.87;61.16;95761.22;5111325;28;20092;-76
2023/10/30 07:14:32;;;;;;;16.88;6.28;;;;;;;12.86;61.11;95741.81;5111408;28;20126;-76
2023/10/30 07:16:58;;;;;;;13.77;5.32;;;;;;;12.84;60.81;95733.28;5110589;28;20036;-76
2023/10/30 07:19:23;;;;;;;15.35;5.45;;;;;;;12.96;61.00;95756.94;5090501;28;20027;-76
2023/10/30 07:21:49;;;;;;;22.70;8.27;;;;;;;12.97;60.81;95755.88;5108523;28;20098;-76
2023/10/30 07:24:14;;;;;;;28.63;11.18;;;;;;;13.05;60.48;95748.09;5109660;28;20024;-76
2023/10/30 07:26:40;;;;;;;23.60;11.13;;;;;;;12.49;59.68;95662.41;5111015;28;20048;-76
2023/10/30 07:29:05;;;;;;;45.25;11.00;;;;;;;12.84;59.62;95730.63;5112720;28;20034;-76
2023/10/30 07:31:30;;;;;;;25.17;9.68;;;;;;;12.96;59.75;95759.59;5113310;28;20123;-76
2023/10/30 07:33:58;;;;;;;23.65;10.07;;;;;;;12.85;59.89;95744.72;5109104;28;20044;-73
2023/10/30 07:36:23;;;;;;;20.67;8.25;;;;;;;12.91;59.92;95743.63;5096775;28;20498;-73
2023/10/30 07:38:49;;;;;;;29.20;10.25;;;;;;;12.82;60.74;95748.72;5097194;28;20042;-73
2023/10/30 07:41:15;;;;;;;23.10;8.38;;;;;;;12.89;61.03;95754.56;5078903;28;20036;-73
2023/10/30 07:43:40;;;;;;;26.15;9.35;;;;;;;12.93;60.64;95733.50;5078227;28;20071;-75
2023/10/30 07:46:06;;;;;;;27.27;9.63;;;;;;;13.05;60.34;95750.75;5087860;28;20031;-73
2023/10/30 07:48:32;;;;;;;28.95;9.55;;;;;;;12.81;60.40;95712.56;5099142;28;20031;-73
2023/10/30 07:51:01;;;;;;;27.85;10.07;;;;;;;13.31;59.47;95761.28;5113440;28;20055;-73
2023/10/30 07:53:27;;;;;;;32.80;11.27;;;;;;;13.22;59.54;95738.97;5089614;28;20051;-76
2023/10/30 07:55:52;;;;;;;33.67;9.40;;;;;;;13.28;59.81;95756.50;5115647;28;20043;-76
2023/10/30 07:58:17;;;;;;;25.63;9.10;;;;;;;13.17;60.59;95739.81;5094205;28;20035;-77
2023/10/30 08:00:43;;;;;;;28.95;10.57;;;;;;;13.19;59.98;95729.69;5091606;28;20024;-78
2023/10/30 08:03:08;;;;;;;25.35;9.32;;;;;;;13.39;60.02;95747.38;5093846;28;20039;-77
2023/10/30 08:05:34;;;;;;;23.17;9.82;;;;;;;13.27;60.57;95742.41;5089614;28;20032;-77
2023/10/30 08:07:59;;;;;;;28.88;9.07;;;;;;;13.18;60.54;95717.44;5107024;28;20492;-76
2023/10/30 08:10:26;;;;;;;25.33;9.57;;;;;;;13.45;60.04;95752.41;5108856;28;20036;-77
2023/10/30 08:12:52;;;;;;;23.48;10.30;;;;;;;13.56;60.15;95753.13;5110349;28;20028;-77
2023/10/30 08:15:17;;;;;;;33.75;12.52;;;;;;;13.66;59.67;95742.38;5092397;28;20111;-77
2023/10/30 08:17:43;;;;;;;34.30;14.05;;;;;;;13.57;59.74;95733.41;5091374;28;20036;-77
2023/10/30 08:20:09;;;;;;;29.00;12.15;;;;;;;13.69;59.52;95723.19;5092654;28;20032;-77
2023/10/30 08:22:36;;;;;;;27.67;10.68;;;;;;;13.82;59.67;95737.72;5090704;28;20035;-77
2023/10/30 08:25:02;;;;;;;28.30;10.50;;;;;;;13.70;59.36;95710.66;5091201;28;20032;-76
2023/10/30 08:27:28;;;;;;;19.15;8.75;;;;;;;13.75;59.22;95695.41;5090832;28;20066;-77
2023/10/30 08:29:53;;;;;;;30.98;10.52;;;;;;;14.01;59.01;95735.97;5108979;28;20059;-77
2023/10/30 08:32:18;;;;;;;57.90;19.00;;;;;;;13.87;59.20;95719.03;5108514;28;20100;-78
2023/10/30 08:34:44;;;;;;;45.22;14.82;;;;;;;13.95;59.00;95712.28;5091528;28;20039;-77
2023/10/30 08:37:10;;;;;;;58.78;20.60;;;;;;;13.90;59.05;95700.59;5090278;28;20032;-77
2023/10/30 08:39:35;;;;;;;47.42;16.65;;;;;;;14.25;59.07;95747.47;5107485;28;20043;-78
2023/10/30 08:42:01;;;;;;;42.60;15.45;;;;;;;14.30;58.67;95731.41;5105154;28;20028;-77
2023/10/30 08:44:27;;;;;;;107.13;36.50;;;;;;;14.09;58.86;95691.88;5095684;28;20024;-77
2023/10/30 08:46:53;;;;;;;70.88;26.45;;;;;;;14.17;58.85;95691.25;5096436;28;20032;-78
2023/10/30 08:49:19;;;;;;;91.28;31.95;;;;;;;14.43;59.11;95731.81;5107135;28;20117;-77
2023/10/30 08:51:44;;;;;;;46.05;14.77;;;;;;;14.26;59.06;95702.91;5087590;28;20036;-77
2023/10/30 08:54:10;;;;;;;47.00;15.65;;;;;;;14.32;59.00;95685.75;5093961;28;20071;-77
2023/10/30 08:56:39;;;;;;;59.38;19.38;;;;;;;14.38;59.37;95702.50;5071741;28;20075;-78
2023/10/30 08:59:05;;;;;;;39.10;15.98;;;;;;;14.40;59.33;95689.72;5070762;28;20100;-78
2023/10/30 09:01:31;;;;;;;33.42;12.32;;;;;;;14.80;58.70;95728.47;5067406;28;20039;-78
2023/10/30 09:03:57;;;;;;;57.75;17.48;;;;;;;14.75;58.65;95710.63;5081420;28;20052;-74
2023/10/30 09:06:23;;;;;;;57.40;19.35;;;;;;;14.84;58.40;95724.13;5071159;28;20040;-74
2023/10/30 09:08:48;;;;;;;54.20;17.95;;;;;;;14.62;58.32;95681.97;5037190;28;20029;-74
2023/10/30 09:11:14;;;;;;;43.75;17.05;;;;;;;14.87;58.41;95702.22;5053134;28;20037;-74
2023/10/30 09:13:39;;;;;;;43.60;15.73;;;;;;;14.81;58.06;95684.63;5053556;28;20063;-74
2023/10/30 09:16:05;;;;;;;43.97;13.95;;;;;;;14.97;57.94;95688.69;5053019;28;20255;-74
2023/10/30 09:18:31;;;;;;;38.40;14.52;;;;;;;15.18;57.93;95707.94;5071961;28;20036;-75
2023/10/30 09:20:56;;;;;;;38.38;13.90;;;;;;;15.25;58.28;95703.81;5071079;28;20136;-74
2023/10/30 09:23:22;;;;;;;39.78;13.77;;;;;;;15.21;58.25;95694.78;5052401;28;20056;-74
2023/10/30 09:25:48;;;;;;;37.28;14.90;;;;;;;15.18;58.31;95670.53;5052297;28;20124;-74
2023/10/30 09:28:14;;;;;;;29.63;11.68;;;;;;;15.40;58.02;95692.88;5070706;28;20119;-74
2023/10/30 09:30:39;;;;;;;34.60;12.38;;;;;;;15.43;57.79;95683.47;5052950;28;20421;-74
2023/10/30 09:33:05;;;;;;;30.75;10.75;;;;;;;15.50;57.99;95677.75;5051554;28;20033;-74
2023/10/30 09:35:31;;;;;;;32.22;10.43;;;;;;;15.65;58.04;95683.69;5070359;28;20044;-74
2023/10/30 09:37:58;;;;;;;27.17;9.85;;;;;;;15.19;57.88;95592.72;5070260;28;20058;-75
2023/10/30 09:40:27;;;;;;;21.23;9.68;;;;;;;15.79;57.55;95673.81;5052434;28;20040;-74
2023/10/30 09:42:53;;;;;;;21.98;8.95;;;;;;;15.82;57.79;95677.78;5052682;28;20043;-74
2023/10/30 09:45:25;;;;;;;25.15;7.35;;;;;;;15.62;58.14;95643.38;5048298;28;20859;-74
2023/10/30 09:47:52;;;;;;;16.40;7.82;;;;;;;15.83;57.75;95653.44;5069792;28;20094;-75
2023/10/30 09:50:19;;;;;;;24.17;8.25;;;;;;;16.03;57.82;95662.16;5070220;28;20040;-74
2023/10/30 09:52:52;;;;;;;24.35;8.52;;;;;;;16.52;57.93;95658.81;5070197;28;20480;-75
2023/10/30 09:55:21;;;;;;;27.38;9.25;;;;;;;17.21;56.11;95630.00;5082411;28;20147;-78
2023/10/30 09:57:53;;;;;;;20.10;7.70;;;;;;;18.30;53.32;95626.69;5096936;28;20054;-78
2023/10/30 10:00:19;;;;;;;21.75;6.38;;;;;;;19.53;50.29;95621.97;5090303;28;20497;-78
2023/10/30 10:02:45;;;;;;;28.48;8.18;;;;;;;20.37;47.94;95632.00;5083952;28;20483;-78
2023/10/30 10:05:13;;;;;;;20.67;6.32;;;;;;;21.55;45.02;95625.31;5079609;28;20099;-78
2023/10/30 10:07:40;;;;;;;20.70;6.35;;;;;;;22.48;43.11;95631.16;5079033;28;20036;-79
2023/10/30 10:10:08;;;;;;;18.65;5.68;;;;;;;23.03;41.54;95625.94;5080420;28;20038;-78
2023/10/30 10:12:34;;;;;;;18.70;5.57;;;;;;;23.73;39.73;95614.75;5080154;28;20062;-79
2023/10/30 10:15:03;;;;;;;26.42;5.10;;;;;;;24.26;38.61;95601.84;5093050;28;20137;-75
2023/10/30 10:17:28;;;;;;;16.90;4.60;;;;;;;24.79;37.33;95598.44;5090204;28;20344;-76
2023/10/30 10:19:54;;;;;;;12.75;4.22;;;;;;;24.89;37.34;95595.16;5088978;28;20094;-76
2023/10/30 10:22:30;;;;;;;9.40;4.68;;;;;;;24.95;36.45;95612.75;5070220;28;20028;-75
2023/10/30 10:24:56;;;;;;;19.83;5.22;;;;;;;24.64;37.03;95599.28;5069659;28;20586;-75
2023/10/30 10:27:24;;;;;;;16.40;5.00;;;;;;;24.53;37.01;95561.06;5070379;28;20064;-75
2023/10/30 10:29:56;;;;;;;12.20;3.80;;;;;;;24.39;36.73;95546.41;5087522;28;20410;-75
2023/10/30 10:32:26;;;;;;;12.80;3.80;;;;;;;24.67;37.11;95586.91;5070229;28;20097;-75
2023/10/30 10:35:07;;;;;;;17.33;5.68;;;;;;;24.05;37.98;95537.81;5071194;28;20066;-75
2023/10/30 10:37:33;;;;;;;;;;;;;;;24.34;38.26;95584.59;5072354;28;20108;-75
2023/10/30 10:39:59;;;;;;;18.15;5.13;;;;;;;24.08;38.89;95574.28;5071898;28;20351;-76
2023/10/30 10:42:26;;;;;;;11.73;4.88;;;;;;;24.43;38.50;95582.50;5071768;28;20024;-75
2023/10/30 10:44:54;;;;;;;16.42;5.38;;;;;;;24.40;38.31;95577.78;5074504;28;20127;-75
2023/10/30 10:47:21;;;;;;;11.20;4.40;;;;;;;24.42;38.00;95560.00;5074733;28;20031;-75
2023/10/30 10:49:47;;;;;;;16.92;4.63;;;;;;;24.65;37.84;95575.63;5076097;28;20032;-76
2023/10/30 10:52:14;;;;;;;17.25;4.28;;;;;;;24.38;37.24;95580.84;5093992;28;20032;-75
2023/10/30 10:54:52;;;;;;;12.80;4.00;;;;;;;24.33;37.70;95572.19;5074850;28;20060;-75
2023/10/30 10:57:20;;;;;;;13.93;3.78;;;;;;;24.27;37.34;95563.53;5075887;28;20036;-75
2023/10/30 10:59:53;;;;;;;9.85;3.97;;;;;;;23.95;37.92;95553.81;5075680;28;20032;-75
2023/10/30 11:02:22;;;;;;;17.60;4.35;;;;;;;24.16;37.88;95557.06;5075888;28;20056;-75
2023/10/30 11:04:50;;;;;;;12.48;4.47;;;;;;;24.22;37.96;95556.47;5075580;28;20036;-75
2023/10/30 11:07:46;;;;;;;18.52;4.53;;;;;;;24.13;38.31;95555.81;5075638;28;20536;-75
2023/10/30 11:10:25;;;;;;;8.80;3.50;;;;;;;24.03;37.82;95547.44;5092913;28;20031;-75
2023/10/30 11:13:03;;;;;;;17.92;4.53;;;;;;;24.26;37.59;95542.97;5093603;28;20512;-75
2023/10/30 11:15:34;;;;;;;7.78;3.83;;;;;;;24.34;37.66;95506.00;5093130;28;20471;-75
2023/10/30 11:18:13;;;;;;;;;;;;;;;24.84;37.20;95529.56;5075841;28;20065;-76
2023/10/30 11:20:40;;;;;;;16.88;3.50;;;;;;;24.94;36.39;95513.56;5092751;28;19920;-76